Time;durP1;ratioP1;P1;durP2;ratioP2;P2;SDS_P1;SDS_P2;PMS_P1;PMS_P2;Temp;Humidity;BMP_temperature;BMP_pressure;BME280_temperature;BME280_humidity;BME280_pressure;Samples;Min_cycle;Max_cycle;Signal;HPM_P1;HPM_P2
2023/08/17 00:01:50;;;;;;;4.93;0.98;;;16.80;99.90;;;;;;5096660;28;20499;-46
2023/08/17 00:04:16;;;;;;;2.65;1.00;;;16.90;99.90;;;;;;5096568;28;20040;-46
2023/08/17 00:06:42;;;;;;;1.98;0.90;;;16.80;99.90;;;;;;5095644;28;20097;-46
2023/08/17 00:09:09;;;;;;;1.95;1.00;;;16.90;99.90;;;;;;5096577;28;20428;-46
2023/08/17 00:11:34;;;;;;;2.17;1.00;;;16.90;99.90;;;;;;5096462;28;20129;-46
2023/08/17 00:14:00;;;;;;;4.68;1.02;;;16.90;99.90;;;;;;5096895;28;20083;-46
2023/08/17 00:16:26;;;;;;;3.38;1.10;;;16.90;99.90;;;;;;5096332;28;20044;-46
2023/08/17 00:18:52;;;;;;;2.92;1.13;;;16.90;99.90;;;;;;5096200;28;20047;-46
2023/08/17 00:21:18;;;;;;;2.42;1.10;;;16.90;99.90;;;;;;5096032;28;20063;-46
2023/08/17 00:23:43;;;;;;;2.53;1.15;;;16.90;99.90;;;;;;5096203;28;20097;-46
2023/08/17 00:26:09;;;;;;;2.47;1.10;;;16.90;99.90;;;;;;5095845;28;20479;-47
2023/08/17 00:28:35;;;;;;;2.63;1.20;;;16.90;99.90;;;;;;5096328;28;20044;-47
2023/08/17 00:31:01;;;;;;;2.10;1.00;;;16.90;99.90;;;;;;5096017;28;20047;-46
2023/08/17 00:33:26;;;;;;;1.65;0.88;;;16.80;99.90;;;;;;5078225;28;20066;-46
2023/08/17 00:35:52;;;;;;;2.17;1.17;;;16.80;99.90;;;;;;5095954;28;20036;-45
2023/08/17 00:38:18;;;;;;;2.85;0.90;;;16.80;99.90;;;;;;5095927;28;20122;-46
2023/08/17 00:40:43;;;;;;;3.10;1.15;;;16.80;99.90;;;;;;5094479;28;20044;-46
2023/08/17 00:43:09;;;;;;;3.38;1.30;;;16.80;99.90;;;;;;5095505;28;20055;-45
2023/08/17 00:45:35;;;;;;;3.53;1.00;;;16.80;99.90;;;;;;5095686;28;20044;-47
2023/08/17 00:48:01;;;;;;;2.63;1.20;;;16.80;99.90;;;;;;5095770;28;20052;-46
2023/08/17 00:50:29;;;;;;;3.58;1.10;;;16.80;99.90;;;;;;5095703;28;20040;-46
2023/08/17 00:52:55;;;;;;;2.92;0.70;;;16.70;99.90;;;;;;5094739;28;20055;-46
2023/08/17 00:55:21;;;;;;;4.38;1.58;;;16.70;99.90;;;;;;5095457;28;20040;-46
2023/08/17 00:57:47;;;;;;;3.03;1.08;;;16.70;99.90;;;;;;5095585;28;20127;-46
2023/08/17 01:00:14;;;;;;;2.25;0.90;;;16.70;99.90;;;;;;5095705;28;20174;-45
2023/08/17 01:02:41;;;;;;;2.20;0.95;;;16.70;99.90;;;;;;5095465;28;20040;-46
2023/08/17 01:05:07;;;;;;;2.65;1.15;;;16.60;99.90;;;;;;5095341;28;20048;-46
2023/08/17 01:07:33;;;;;;;2.88;0.93;;;16.60;99.90;;;;;;5093663;28;20040;-46
2023/08/17 01:10:00;;;;;;;2.40;0.93;;;16.60;99.90;;;;;;5095172;28;20502;-45
2023/08/17 01:12:37;;;;;;;3.50;1.08;;;16.60;99.90;;;;;;5095290;28;20080;-46
2023/08/17 01:15:06;;;;;;;5.38;1.40;;;16.50;99.90;;;;;;5095349;28;20043;-45
2023/08/17 01:17:54;;;;;;;2.40;0.98;;;16.60;99.90;;;;;;5094234;28;20179;-46
2023/08/17 01:20:21;;;;;;;3.03;0.95;;;16.60;99.90;;;;;;5095011;28;20059;-46
2023/08/17 01:22:50;;;;;;;2.55;0.93;;;16.50;99.90;;;;;;5095148;28;20044;-47
2023/08/17 01:25:15;;;;;;;2.90;1.20;;;16.50;99.90;;;;;;5094961;28;20059;-46
2023/08/17 01:27:44;;;;;;;3.20;1.30;;;16.50;99.90;;;;;;5094748;28;20048;-46
2023/08/17 01:30:12;;;;;;;3.95;1.00;;;16.50;99.90;;;;;;5094764;28;20050;-46
2023/08/17 01:32:46;;;;;;;2.80;1.10;;;16.50;99.90;;;;;;5094913;28;20048;-46
2023/08/17 01:35:21;;;;;;;3.10;1.08;;;16.50;99.90;;;;;;5094904;28;20567;-46
2023/08/17 01:37:50;;;;;;;2.80;1.10;;;16.50;99.90;;;;;;5094875;28;20039;-46
2023/08/17 01:40:18;;;;;;;2.50;1.00;;;16.50;99.90;;;;;;5093490;28;20502;-46
2023/08/17 01:42:43;;;;;;;2.35;1.00;;;16.40;99.90;;;;;;5094706;28;20044;-46
2023/08/17 01:45:10;;;;;;;3.90;1.30;;;16.40;99.90;;;;;;5094503;28;20555;-46
2023/08/17 01:47:36;;;;;;;3.67;0.95;;;16.40;99.90;;;;;;5076694;28;20044;-47
2023/08/17 01:50:02;;;;;;;2.80;1.08;;;16.40;99.90;;;;;;5094748;28;20045;-46
2023/08/17 01:52:28;;;;;;;2.75;1.13;;;16.40;99.90;;;;;;5094576;28;20047;-46
2023/08/17 01:54:54;;;;;;;1.77;0.90;;;16.40;99.90;;;;;;5094449;28;20075;-46
2023/08/17 01:57:19;;;;;;;3.97;0.90;;;16.40;99.90;;;;;;5094440;28;20104;-46
2023/08/17 01:59:45;;;;;;;2.53;0.90;;;16.40;99.90;;;;;;5094194;28;20104;-46
2023/08/17 02:02:14;;;;;;;4.30;1.30;;;16.40;99.90;;;;;;5094674;28;20075;-46
2023/08/17 02:04:40;;;;;;;3.10;1.10;;;16.40;99.90;;;;;;5094272;28;20040;-45
2023/08/17 02:07:06;;;;;;;5.40;1.20;;;16.40;99.90;;;;;;5093268;28;20054;-47
2023/08/17 02:09:31;;;;;;;2.50;1.17;;;16.40;99.90;;;;;;5094303;28;20044;-46
2023/08/17 02:11:57;;;;;;;2.83;1.10;;;16.30;99.90;;;;;;5093247;28;20075;-47
2023/08/17 02:14:23;;;;;;;2.95;1.00;;;16.30;99.90;;;;;;5092990;28;20177;-46
2023/08/17 02:16:48;;;;;;;3.70;0.90;;;16.40;99.90;;;;;;5076080;28;20055;-45
2023/08/17 02:19:14;;;;;;;2.05;0.95;;;16.40;99.90;;;;;;5094055;28;20131;-46
2023/08/17 02:21:40;;;;;;;2.42;0.90;;;16.40;99.90;;;;;;5094011;28;20043;-46
2023/08/17 02:24:06;;;;;;;3.08;1.13;;;16.40;99.90;;;;;;5094038;28;20048;-46
2023/08/17 02:26:32;;;;;;;3.83;1.10;;;16.30;99.90;;;;;;5094220;28;20090;-46
2023/08/17 02:28:57;;;;;;;1.90;1.00;;;16.30;99.90;;;;;;5093860;28;20071;-45
2023/08/17 02:31:23;;;;;;;1.30;0.77;;;16.30;99.90;;;;;;5092634;28;20452;-46
2023/08/17 02:33:49;;;;;;;2.25;0.90;;;16.30;99.90;;;;;;5093903;28;20487;-46
2023/08/17 02:36:14;;;;;;;1.52;0.70;;;16.30;99.90;;;;;;5093890;28;20043;-46
2023/08/17 02:38:40;;;;;;;1.83;0.80;;;16.30;99.90;;;;;;5093977;28;20040;-46
2023/08/17 02:41:07;;;;;;;3.08;0.80;;;16.30;99.90;;;;;;5094013;28;20071;-46
2023/08/17 02:43:32;;;;;;;2.42;1.13;;;16.30;99.90;;;;;;5093661;28;20133;-46
2023/08/17 02:45:59;;;;;;;2.72;0.80;;;16.30;99.90;;;;;;5093458;28;20048;-46
2023/08/17 02:48:25;;;;;;;4.22;1.27;;;16.30;99.90;;;;;;5093772;28;20052;-45
2023/08/17 02:50:51;;;;;;;;;;;16.30;99.90;;;;;;5094079;28;20087;-46
2023/08/17 02:53:17;;;;;;;2.75;0.85;;;16.30;99.90;;;;;;5093730;28;19982;-46
2023/08/17 02:55:42;;;;;;;3.23;0.80;;;16.20;99.90;;;;;;5093697;28;20044;-46
2023/08/17 02:58:08;;;;;;;1.93;0.90;;;16.20;99.90;;;;;;5093515;28;20286;-46
2023/08/17 03:00:34;;;;;;;2.60;1.20;;;16.20;99.90;;;;;;5093362;28;20286;-46
2023/08/17 03:03:00;;;;;;;2.92;1.10;;;16.20;99.90;;;;;;5093594;28;20105;-46
2023/08/17 03:05:25;;;;;;;2.38;0.93;;;16.30;99.90;;;;;;5092438;28;20539;-46
2023/08/17 03:07:51;;;;;;;3.00;1.05;;;16.30;99.90;;;;;;5093783;28;20419;-45
2023/08/17 03:10:17;;;;;;;2.13;1.13;;;16.20;99.90;;;;;;5093392;28;20442;-46
2023/08/17 03:12:43;;;;;;;2.60;1.05;;;16.20;99.90;;;;;;5093463;28;20675;-46
2023/08/17 03:15:08;;;;;;;2.58;0.98;;;16.20;99.90;;;;;;5093378;28;20043;-46
2023/08/17 03:17:34;;;;;;;2.85;1.10;;;16.20;99.90;;;;;;5093508;28;20052;-46
2023/08/17 03:20:00;;;;;;;2.58;1.10;;;16.20;99.90;;;;;;5093406;28;20047;-46
2023/08/17 03:22:25;;;;;;;2.28;0.90;;;16.20;99.90;;;;;;5093683;28;20040;-46
2023/08/17 03:24:51;;;;;;;3.00;0.80;;;16.20;99.90;;;;;;5093174;28;20037;-46
2023/08/17 03:27:17;;;;;;;1.92;0.73;;;16.20;99.90;;;;;;5093426;28;20040;-45
2023/08/17 03:29:42;;;;;;;4.28;0.75;;;16.20;99.90;;;;;;5093068;28;20552;-45
2023/08/17 03:32:08;;;;;;;2.20;0.50;;;16.20;99.90;;;;;;5096739;28;20063;-45
2023/08/17 03:34:34;;;;;;;1.77;0.70;;;16.10;99.90;;;;;;5097360;28;20047;-47
2023/08/17 03:36:59;;;;;;;3.53;0.80;;;16.20;99.90;;;;;;5097153;28;20775;-46
2023/08/17 03:39:25;;;;;;;1.83;0.80;;;16.10;99.90;;;;;;5097371;28;20657;-46
2023/08/17 03:41:51;;;;;;;3.45;0.88;;;16.10;99.90;;;;;;5096913;28;20047;-46
2023/08/17 03:44:17;;;;;;;2.47;0.70;;;16.10;99.90;;;;;;5078808;28;20059;-46
2023/08/17 03:46:42;;;;;;;2.85;0.75;;;16.10;99.90;;;;;;5097186;28;20055;-46
2023/08/17 03:49:08;;;;;;;1.73;0.90;;;16.10;99.90;;;;;;5097290;28;20043;-46
2023/08/17 03:51:34;;;;;;;2.53;0.90;;;16.10;99.90;;;;;;5097084;28;20507;-46
2023/08/17 03:53:59;;;;;;;3.20;0.70;;;16.10;99.90;;;;;;5096940;28;20741;-45
2023/08/17 03:56:25;;;;;;;2.83;0.70;;;16.10;99.90;;;;;;5096804;28;20776;-46
2023/08/17 03:58:52;;;;;;;2.22;0.70;;;16.10;99.90;;;;;;5078710;28;20055;-46
2023/08/17 04:01:18;;;;;;;2.70;0.85;;;16.10;99.90;;;;;;5096785;28;20044;-45
2023/08/17 04:03:44;;;;;;;2.67;1.15;;;16.10;99.90;;;;;;5096552;28;20051;-46
2023/08/17 04:06:12;;;;;;;2.92;1.13;;;16.10;99.90;;;;;;5096596;28;20044;-46
2023/08/17 04:08:38;;;;;;;4.18;1.00;;;16.10;99.90;;;;;;5096429;28;20054;-46
2023/08/17 04:11:04;;;;;;;2.40;1.08;;;16.10;99.90;;;;;;5096503;28;20044;-46
2023/08/17 04:13:31;;;;;;;2.22;0.98;;;16.00;99.90;;;;;;5096451;28;20048;-46
2023/08/17 04:15:57;;;;;;;;;;;16.00;99.90;;;;;;5097112;28;20036;-46
2023/08/17 04:18:22;;;;;;;2.75;0.77;;;16.00;99.90;;;;;;5096232;28;20248;-46
2023/08/17 04:20:48;;;;;;;2.50;0.70;;;16.00;99.90;;;;;;5078469;28;20056;-46
2023/08/17 04:23:14;;;;;;;5.18;0.80;;;16.00;99.90;;;;;;5096269;28;20438;-46
2023/08/17 04:25:40;;;;;;;2.63;1.00;;;15.90;99.90;;;;;;5096047;28;20043;-46
2023/08/17 04:28:05;;;;;;;2.00;0.85;;;15.90;99.90;;;;;;5095986;28;20157;-46
2023/08/17 04:30:31;;;;;;;2.50;0.90;;;15.90;99.90;;;;;;5095228;28;20467;-46
2023/08/17 04:32:57;;;;;;;2.17;0.82;;;15.90;99.90;;;;;;5095992;28;20690;-46
2023/08/17 04:35:22;;;;;;;2.28;0.80;;;15.90;99.90;;;;;;5096093;28;20510;-46
2023/08/17 04:37:48;;;;;;;2.75;0.85;;;15.90;99.90;;;;;;5096215;28;20036;-47
2023/08/17 04:40:14;;;;;;;4.85;0.80;;;15.90;99.90;;;;;;5094823;28;20094;-46
2023/08/17 04:42:40;;;;;;;2.22;0.82;;;15.90;99.90;;;;;;5094478;28;20051;-46
2023/08/17 04:45:06;;;;;;;2.97;1.00;;;15.90;99.90;;;;;;5094435;28;20044;-45
2023/08/17 04:47:32;;;;;;;;;;;15.80;99.90;;;;;;5095193;28;20564;-46
2023/08/17 04:49:57;;;;;;;3.70;0.93;;;15.80;99.90;;;;;;5095554;28;19966;-46
2023/08/17 04:52:23;;;;;;;3.13;0.95;;;15.80;99.90;;;;;;5095691;28;20059;-45
2023/08/17 04:54:49;;;;;;;2.67;0.93;;;15.80;99.90;;;;;;5094723;28;20058;-46
2023/08/17 04:57:14;;;;;;;2.08;0.70;;;15.80;99.90;;;;;;5095333;28;20048;-46
2023/08/17 04:59:40;;;;;;;1.80;0.63;;;15.80;99.90;;;;;;5095627;28;20491;-46
2023/08/17 05:02:06;;;;;;;3.65;0.80;;;15.90;99.90;;;;;;5095319;28;20052;-46
2023/08/17 05:04:32;;;;;;;2.25;0.90;;;15.90;99.90;;;;;;5094404;28;20044;-46
2023/08/17 05:06:58;;;;;;;2.55;1.08;;;15.90;99.90;;;;;;5095456;28;20510;-46
2023/08/17 05:09:23;;;;;;;3.53;0.90;;;15.80;99.90;;;;;;5095226;28;20052;-46
2023/08/17 05:11:49;;;;;;;2.75;0.90;;;15.90;99.90;;;;;;5095253;28;20480;-47
2023/08/17 05:14:15;;;;;;;3.47;0.73;;;15.90;99.90;;;;;;5094201;28;20471;-46
2023/08/17 05:16:40;;;;;;;1.85;0.65;;;15.90;99.90;;;;;;5094646;28;20383;-46
2023/08/17 05:19:06;;;;;;;2.38;0.68;;;15.90;99.90;;;;;;5095215;28;20047;-46
2023/08/17 05:21:32;;;;;;;5.72;1.00;;;15.90;99.90;;;;;;5095252;28;20089;-45
2023/08/17 05:23:57;;;;;;;2.15;0.70;;;15.90;99.90;;;;;;5093730;28;20082;-47
2023/08/17 05:26:23;;;;;;;2.22;0.68;;;15.90;99.90;;;;;;5093439;28;20040;-46
2023/08/17 05:28:49;;;;;;;2.00;0.80;;;15.90;99.90;;;;;;5095093;28;20445;-46
2023/08/17 05:31:15;;;;;;;2.72;0.70;;;16.00;99.90;;;;;;5093891;28;20052;-46
2023/08/17 05:33:41;;;;;;;1.63;0.80;;;16.10;99.90;;;;;;5094935;28;20044;-47
2023/08/17 05:36:07;;;;;;;4.38;0.90;;;16.10;99.90;;;;;;5094957;28;20498;-46
2023/08/17 05:38:33;;;;;;;;;;;16.20;99.90;;;;;;5095126;28;20055;-46
2023/08/17 05:40:59;;;;;;;3.95;0.80;;;16.20;99.90;;;;;;5094524;28;19919;-48
2023/08/17 05:43:25;;;;;;;1.85;0.63;;;16.30;99.90;;;;;;5094607;28;20055;-46
2023/08/17 05:45:51;;;;;;;2.60;0.85;;;16.30;99.90;;;;;;5095278;28;20093;-45
2023/08/17 05:48:20;;;;;;;3.33;1.05;;;16.40;99.90;;;;;;5094943;28;20391;-47
2023/08/17 05:50:47;;;;;;;3.67;0.93;;;16.40;99.90;;;;;;5094348;28;20483;-48
2023/08/17 05:53:13;;;;;;;2.28;0.80;;;16.40;99.90;;;;;;5094295;28;20130;-49
2023/08/17 05:55:38;;;;;;;9.38;3.55;;;16.50;99.90;;;;;;5094203;28;20460;-46
2023/08/17 05:58:04;;;;;;;4.83;1.43;;;16.60;99.90;;;;;;5094430;28;20040;-45
2023/08/17 06:00:30;;;;;;;4.53;1.10;;;16.70;99.90;;;;;;5093163;28;20286;-46
2023/08/17 06:03:00;;;;;;;2.35;0.88;;;16.80;99.90;;;;;;5094523;28;20314;-46
2023/08/17 06:05:30;;;;;;;3.60;0.77;;;17.30;99.90;;;;;;5094299;28;20096;-48
2023/08/17 06:07:59;;;;;;;2.45;0.80;;;17.80;99.90;;;;;;5093362;28;20047;-47
2023/08/17 06:10:25;;;;;;;2.80;0.63;;;18.40;99.90;;;;;;5094096;28;20059;-46
2023/08/17 06:12:57;;;;;;;3.05;0.80;;;19.00;99.90;;;;;;5094290;28;20051;-46
2023/08/17 06:15:23;;;;;;;2.33;0.80;;;19.70;99.90;;;;;;5094039;28;20054;-46
2023/08/17 06:17:52;;;;;;;;;;;20.40;99.90;;;;;;5094611;28;20044;-47
2023/08/17 06:20:18;;;;;;;4.13;0.80;;;20.90;99.90;;;;;;5094119;28;19927;-47
2023/08/17 06:22:44;;;;;;;3.13;0.88;;;21.30;99.90;;;;;;5092690;28;20110;-47
2023/08/17 06:25:10;;;;;;;1.02;0.40;;;21.30;99.90;;;;;;5092923;28;20051;-46
2023/08/17 06:27:36;;;;;;;1.40;0.57;;;20.90;99.90;;;;;;5093095;28;20056;-47
2023/08/17 06:30:03;;;;;;;5.30;0.70;;;20.40;99.90;;;;;;5092880;28;20497;-47
2023/08/17 06:32:30;;;;;;;3.67;0.60;;;20.00;99.90;;;;;;5093911;28;20055;-47
2023/08/17 06:34:55;;;;;;;1.63;0.60;;;19.60;99.90;;;;;;5093822;28;20040;-46
2023/08/17 06:37:21;;;;;;;2.63;0.63;;;19.40;99.90;;;;;;5093720;28;20136;-46
2023/08/17 06:39:47;;;;;;;3.72;0.50;;;19.20;99.90;;;;;;5094066;28;20044;-46
2023/08/17 06:42:12;;;;;;;2.95;0.50;;;19.10;99.90;;;;;;5093714;28;20048;-46
2023/08/17 06:44:38;;;;;;;1.85;0.60;;;18.90;99.90;;;;;;5092619;28;20056;-46
2023/08/17 06:47:04;;;;;;;1.42;0.45;;;18.80;99.90;;;;;;5093949;28;20048;-46
2023/08/17 06:49:30;;;;;;;1.77;0.30;;;18.70;99.90;;;;;;5093647;28;20101;-46
2023/08/17 06:51:56;;;;;;;1.50;0.40;;;18.60;99.90;;;;;;5093512;28;20377;-46
2023/08/17 06:54:22;;;;;;;2.50;0.57;;;18.50;99.90;;;;;;5093859;28;20047;-46
2023/08/17 06:56:47;;;;;;;1.38;0.55;;;18.30;99.90;;;;;;5092558;28;20479;-47
2023/08/17 06:59:13;;;;;;;1.35;0.55;;;18.30;99.90;;;;;;5093627;28;20044;-46
2023/08/17 07:01:39;;;;;;;1.67;0.57;;;18.20;99.90;;;;;;5093488;28;20050;-46
2023/08/17 07:04:05;;;;;;;0.98;0.50;;;18.10;99.90;;;;;;5093427;28;20399;-46
2023/08/17 07:06:30;;;;;;;3.08;0.68;;;18.00;99.90;;;;;;5094735;28;20046;-47
2023/08/17 07:08:56;;;;;;;3.00;0.57;;;18.00;99.90;;;;;;5097691;28;20048;-48
2023/08/17 07:11:22;;;;;;;2.08;0.63;;;18.00;99.90;;;;;;5097638;28;20044;-46
2023/08/17 07:13:48;;;;;;;2.58;0.63;;;17.90;99.90;;;;;;5097576;28;20048;-48
2023/08/17 07:16:13;;;;;;;1.42;0.55;;;17.80;99.90;;;;;;5097522;28;20098;-47
2023/08/17 07:18:39;;;;;;;1.98;0.50;;;17.70;99.90;;;;;;5097361;28;20094;-47
2023/08/17 07:21:05;;;;;;;2.60;0.77;;;17.70;99.90;;;;;;5096345;28;20132;-46
2023/08/17 07:23:31;;;;;;;2.50;0.93;;;17.70;99.90;;;;;;5097421;28;20097;-48
2023/08/17 07:25:57;;;;;;;2.53;0.40;;;17.70;99.90;;;;;;5097323;28;20040;-45
2023/08/17 07:28:22;;;;;;;2.25;0.70;;;17.80;99.90;;;;;;5097187;28;20036;-47
2023/08/17 07:30:48;;;;;;;2.30;0.73;;;17.80;99.90;;;;;;5097351;28;20108;-45
2023/08/17 07:33:14;;;;;;;1.33;0.73;;;17.80;99.90;;;;;;5097117;28;20422;-46
2023/08/17 07:35:39;;;;;;;1.55;0.47;;;17.80;99.90;;;;;;5097152;28;20123;-45
2023/08/17 07:38:05;;;;;;;2.50;0.45;;;17.70;99.90;;;;;;5097202;28;20044;-48
2023/08/17 07:40:31;;;;;;;1.88;0.30;;;17.70;99.90;;;;;;5097205;28;20048;-46
2023/08/17 07:42:57;;;;;;;3.55;0.75;;;17.70;99.90;;;;;;5097109;28;20070;-46
2023/08/17 07:45:22;;;;;;;3.33;0.65;;;17.70;99.90;;;;;;5095530;28;20059;-46
2023/08/17 07:47:48;;;;;;;2.42;0.60;;;17.70;99.90;;;;;;5097002;28;20144;-46
2023/08/17 07:50:14;;;;;;;0.98;0.40;;;17.70;99.90;;;;;;5096805;28;20471;-46
2023/08/17 07:52:40;;;;;;;1.92;0.47;;;17.70;99.90;;;;;;5096903;28;20044;-46
2023/08/17 07:55:06;;;;;;;2.33;0.63;;;17.80;99.90;;;;;;5096877;28;20398;-46
2023/08/17 07:57:31;;;;;;;1.00;0.50;;;17.80;99.90;;;;;;5096866;28;20138;-46
2023/08/17 07:59:57;;;;;;;1.50;0.43;;;17.80;99.90;;;;;;5096747;28;20097;-47
2023/08/17 08:02:23;;;;;;;1.52;0.40;;;17.70;99.90;;;;;;5096735;28;20048;-46
2023/08/17 08:04:48;;;;;;;2.08;0.50;;;17.70;99.90;;;;;;5096630;28;20076;-46
2023/08/17 08:07:14;;;;;;;2.40;0.55;;;17.80;99.90;;;;;;5096297;28;20465;-46
2023/08/17 08:09:40;;;;;;;1.25;0.40;;;17.80;99.90;;;;;;5096801;28;20048;-47
2023/08/17 08:12:07;;;;;;;1.25;0.30;;;17.80;99.90;;;;;;5095342;28;20040;-48
2023/08/17 08:14:34;;;;;;;0.88;0.30;;;17.80;99.90;;;;;;5096620;28;20041;-46
2023/08/17 08:16:59;;;;;;;;;;;17.90;99.90;;;;;;5095397;28;20060;-46
2023/08/17 08:19:25;;;;;;;4.72;0.43;;;17.90;99.90;;;;;;5095093;28;20009;-48
2023/08/17 08:21:50;;;;;;;1.55;0.50;;;17.90;99.90;;;;;;5096834;28;20138;-46
2023/08/17 08:24:16;;;;;;;2.33;0.47;;;17.80;99.90;;;;;;5096604;28;20127;-47
2023/08/17 08:26:42;;;;;;;1.85;0.50;;;17.80;99.90;;;;;;5095046;28;20475;-47
2023/08/17 08:29:07;;;;;;;2.20;0.40;;;17.70;99.90;;;;;;5096105;28;20059;-46
2023/08/17 08:31:33;;;;;;;0.95;0.38;;;17.70;99.90;;;;;;5096115;28;20059;-47
2023/08/17 08:33:59;;;;;;;1.08;0.43;;;17.70;99.90;;;;;;5095716;28;20044;-46
2023/08/17 08:36:25;;;;;;;1.35;0.50;;;17.60;99.90;;;;;;5095675;28;20044;-45
2023/08/17 08:38:51;;;;;;;1.23;0.50;;;17.60;99.90;;;;;;5096351;28;20040;-48
2023/08/17 08:41:17;;;;;;;2.78;0.50;;;17.60;99.90;;;;;;5095068;28;20055;-47
2023/08/17 08:43:43;;;;;;;2.95;0.57;;;17.60;99.90;;;;;;5095752;28;20064;-46
2023/08/17 08:46:09;;;;;;;1.42;0.45;;;17.60;99.90;;;;;;5095854;28;20044;-47
2023/08/17 08:48:38;;;;;;;1.00;0.50;;;17.60;99.90;;;;;;5095790;28;20048;-46
2023/08/17 08:51:07;;;;;;;1.52;0.30;;;17.60;99.90;;;;;;5095627;28;20419;-48
2023/08/17 08:53:44;;;;;;;2.45;0.63;;;17.70;99.90;;;;;;5095609;28;20051;-46
2023/08/17 08:56:14;;;;;;;1.08;0.45;;;17.60;99.90;;;;;;5095852;28;20040;-48
2023/08/17 08:58:41;;;;;;;1.25;0.60;;;17.70;99.90;;;;;;5095468;28;20040;-45
2023/08/17 09:01:10;;;;;;;2.58;0.70;;;17.70;99.90;;;;;;5095622;28;20055;-46
2023/08/17 09:03:36;;;;;;;1.90;0.52;;;17.70;99.90;;;;;;5095458;28;20505;-46
2023/08/17 09:06:03;;;;;;;;;;;17.80;99.90;;;;;;5095752;28;20040;-47
2023/08/17 09:08:30;;;;;;;3.38;0.50;;;17.80;99.90;;;;;;5095393;28;19926;-48
2023/08/17 09:10:56;;;;;;;2.58;0.50;;;17.90;99.90;;;;;;5095620;28;20122;-46
2023/08/17 09:13:21;;;;;;;1.88;0.65;;;17.90;99.90;;;;;;5095430;28;20113;-47
2023/08/17 09:15:47;;;;;;;2.92;0.60;;;17.90;99.90;;;;;;5094300;28;20048;-46
2023/08/17 09:18:13;;;;;;;2.38;0.45;;;18.00;99.90;;;;;;5094992;28;20087;-46
2023/08/17 09:20:47;;;;;;;0.93;0.40;;;18.00;99.90;;;;;;5095177;28;20418;-47
2023/08/17 09:23:14;;;;;;;2.90;0.50;;;18.10;99.90;;;;;;5095219;28;20079;-47
2023/08/17 09:25:42;;;;;;;1.42;0.50;;;18.10;99.90;;;;;;5094921;28;20052;-48
2023/08/17 09:28:09;;;;;;;2.60;0.50;;;18.20;99.90;;;;;;5094202;28;20122;-49
2023/08/17 09:30:56;;;;;;;0.68;0.30;;;18.30;99.90;;;;;;5094863;28;20048;-48
2023/08/17 09:33:27;;;;;;;1.27;0.50;;;18.40;99.90;;;;;;5095007;28;20048;-46
2023/08/17 09:35:54;;;;;;;2.55;0.50;;;18.40;99.90;;;;;;5095087;28;20040;-47
2023/08/17 09:38:21;;;;;;;1.98;0.40;;;18.40;99.90;;;;;;5076717;28;20048;-46
2023/08/17 09:40:47;;;;;;;;;;;18.50;99.90;;;;;;5094892;28;20055;-51
2023/08/17 09:43:14;;;;;;;2.50;0.60;;;18.50;99.90;;;;;;5094557;28;19963;-47
2023/08/17 09:45:43;;;;;;;1.92;0.82;;;18.60;99.90;;;;;;5094625;28;20050;-46
2023/08/17 09:48:08;;;;;;;1.30;0.50;;;18.60;99.90;;;;;;5094563;28;20044;-47
2023/08/17 09:50:35;;;;;;;1.33;0.50;;;18.70;99.90;;;;;;5094540;28;20132;-47
2023/08/17 09:53:02;;;;;;;6.75;0.65;;;18.70;99.90;;;;;;5094671;28;20087;-46
2023/08/17 09:55:33;;;;;;;1.08;0.50;;;18.70;99.90;;;;;;5094419;28;20046;-47
2023/08/17 09:58:00;;;;;;;1.75;0.40;;;18.70;99.90;;;;;;5094591;28;20101;-46
2023/08/17 10:00:27;;;;;;;1.55;0.50;;;18.80;99.90;;;;;;5094329;28;20101;-47
2023/08/17 10:02:53;;;;;;;1.25;0.50;;;18.80;99.90;;;;;;5094678;28;20409;-47
2023/08/17 10:05:20;;;;;;;2.60;0.50;;;18.80;99.90;;;;;;5094456;28;20051;-48
2023/08/17 10:07:51;;;;;;;1.67;0.60;;;18.80;99.90;;;;;;5094232;28;20048;-47
2023/08/17 10:10:26;;;;;;;1.27;0.40;;;18.80;99.90;;;;;;5094075;28;20380;-46
2023/08/17 10:13:09;;;;;;;0.73;0.50;;;18.80;99.90;;;;;;5094206;28;20056;-46
2023/08/17 10:15:40;;;;;;;3.58;0.60;;;18.80;99.90;;;;;;5094251;28;20054;-47
2023/08/17 10:18:27;;;;;;;1.05;0.30;;;18.80;99.90;;;;;;5094033;28;20095;-47
2023/08/17 10:21:07;;;;;;;2.13;0.43;;;18.80;99.90;;;;;;5093832;28;20048;-47
2023/08/17 10:23:33;;;;;;;1.27;0.40;;;18.90;99.90;;;;;;5094137;28;20054;-46
2023/08/17 10:26:02;;;;;;;1.20;0.57;;;18.90;99.90;;;;;;5094026;28;20118;-46
2023/08/17 10:28:30;;;;;;;2.67;0.75;;;18.90;99.90;;;;;;5093915;28;20094;-46
2023/08/17 10:30:56;;;;;;;1.02;0.50;;;19.00;99.90;;;;;;5093838;28;20063;-46
2023/08/17 10:33:22;;;;;;;1.45;0.40;;;19.00;99.90;;;;;;5094099;28;20048;-47
2023/08/17 10:35:48;;;;;;;2.97;0.57;;;19.00;99.90;;;;;;5093916;28;20048;-47
2023/08/17 10:38:15;;;;;;;;;;;19.00;99.90;;;;;;5094637;28;20083;-46
2023/08/17 10:40:42;;;;;;;2.03;0.53;;;19.10;99.90;;;;;;5093805;28;20394;-47
2023/08/17 10:43:08;;;;;;;1.83;0.60;;;19.20;99.90;;;;;;5093672;28;20498;-48
2023/08/17 10:45:36;;;;;;;1.45;0.47;;;19.30;99.90;;;;;;5092086;28;20048;-47
2023/08/17 10:48:05;;;;;;;2.80;0.60;;;19.40;99.90;;;;;;5093864;28;20149;-46
2023/08/17 10:50:31;;;;;;;2.40;0.50;;;19.50;99.90;;;;;;5092931;28;20148;-48
2023/08/17 10:52:56;;;;;;;2.45;0.73;;;19.60;99.90;;;;;;5093726;28;20075;-47
2023/08/17 10:55:42;;;;;;;1.98;0.98;;;19.70;99.90;;;;;;5093883;28;20043;-48
2023/08/17 10:58:08;;;;;;;2.83;0.60;;;19.80;99.90;;;;;;5093586;28;20052;-45
2023/08/17 11:00:38;;;;;;;2.00;0.57;;;19.90;99.90;;;;;;5093745;28;20051;-46
2023/08/17 11:03:06;;;;;;;1.17;0.63;;;19.90;99.90;;;;;;5093787;28;20386;-47
2023/08/17 11:05:55;;;;;;;2.13;0.55;;;20.00;99.90;;;;;;5093657;28;20036;-46
2023/08/17 11:08:42;;;;;;;3.85;0.77;;;20.10;99.90;;;;;;5093585;28;20044;-47
2023/08/17 11:11:15;;;;;;;2.67;0.60;;;20.30;99.90;;;;;;5093106;28;20044;-46
2023/08/17 11:13:44;;;;;;;2.67;0.70;;;20.30;99.90;;;;;;5093504;28;20043;-46
2023/08/17 11:16:12;;;;;;;2.55;0.65;;;20.30;99.90;;;;;;5093581;28;20048;-46
2023/08/17 11:18:38;;;;;;;3.67;0.90;;;20.30;99.90;;;;;;5093378;28;20048;-47
2023/08/17 11:21:05;;;;;;;1.70;0.60;;;20.40;99.90;;;;;;5093232;28;20555;-48
2023/08/17 11:23:32;;;;;;;2.65;0.75;;;20.30;99.90;;;;;;5092532;28;20048;-47
2023/08/17 11:25:58;;;;;;;2.13;0.70;;;20.30;99.90;;;;;;5093564;28;20051;-47
2023/08/17 11:28:24;;;;;;;;;;;20.30;99.90;;;;;;5093911;28;20055;-47
2023/08/17 11:31:01;;;;;;;2.50;0.60;;;20.40;99.90;;;;;;5092446;28;19920;-45
2023/08/17 11:33:27;;;;;;;2.53;0.60;;;20.30;99.90;;;;;;5093238;28;20044;-48
2023/08/17 11:36:01;;;;;;;1.55;0.73;;;20.40;99.90;;;;;;5093407;28;20109;-46
2023/08/17 11:38:40;;;;;;;2.00;0.80;;;20.60;99.90;;;;;;5093472;28;20123;-46
2023/08/17 11:41:08;;;;;;;2.67;0.65;;;20.60;99.90;;;;;;5093131;28;20055;-47
2023/08/17 11:43:35;;;;;;;2.25;0.70;;;20.70;99.90;;;;;;5093089;28;20141;-46
2023/08/17 11:46:01;;;;;;;;;;;20.70;99.90;;;;;;5092225;28;20119;-47
2023/08/17 11:48:27;;;;;;;;;;;20.70;99.90;;;;;;5093657;28;20011;-46
2023/08/17 11:50:53;;;;;;;;;;;20.80;99.90;;;;;;5093676;28;19986;-46
2023/08/17 11:53:18;;;;;;;;;;;20.80;99.90;;;;;;5097324;28;19973;-47
2023/08/17 11:55:44;;;;;;;;;;;20.70;99.90;;;;;;5096165;28;19931;-46
2023/08/17 11:58:09;;;;;;;;;;;20.70;99.90;;;;;;5096191;28;20264;-47
2023/08/17 12:00:44;;;;;;;;;;;20.70;99.90;;;;;;5097125;28;19970;-47
2023/08/17 12:03:13;;;;;;;;;;;20.60;99.90;;;;;;5097253;28;19923;-47
2023/08/17 12:05:38;;;;;;;;;;;20.60;99.90;;;;;;5097021;28;19920;-46
2023/08/17 12:08:07;;;;;;;;;;;20.60;99.90;;;;;;5097128;28;19957;-47
2023/08/17 12:10:33;;;;;;;;;;;20.70;99.90;;;;;;5097013;28;19919;-47
2023/08/17 12:13:02;;;;;;;;;;;20.80;99.90;;;;;;5096792;28;19965;-46
2023/08/17 12:15:32;;;;;;;;;;;20.80;99.90;;;;;;5096754;28;20352;-46
2023/08/17 12:17:58;;;;;;;;;;;20.80;99.90;;;;;;5095871;28;20370;-46
2023/08/17 12:20:24;;;;;;;;;;;20.70;99.90;;;;;;5095995;28;19924;-48
2023/08/17 12:22:49;;;;;;;;;;;20.70;99.90;;;;;;5096745;28;19927;-46
2023/08/17 12:25:15;;;;;;;;;;;20.60;99.90;;;;;;5078754;28;19920;-47
2023/08/17 12:27:41;;;;;;;;;;;20.70;99.90;;;;;;5096533;28;19920;-46
2023/08/17 12:30:27;;;;;;;;;;;20.80;99.90;;;;;;5096530;28;20385;-47
2023/08/17 12:32:52;;;;;;;;;;;20.80;99.90;;;;;;5096473;28;20046;-48
2023/08/17 12:35:21;;;;;;;;;;;20.70;99.90;;;;;;5096577;28;19970;-47
2023/08/17 12:37:47;;;;;;;;;;;20.70;99.90;;;;;;5095608;28;19927;-48
2023/08/17 12:40:12;;;;;;;;;;;20.60;99.90;;;;;;5096240;28;19920;-46
2023/08/17 12:42:38;;;;;;;;;;;20.50;99.90;;;;;;5096177;28;19981;-47
2023/08/17 12:45:04;;;;;;;;;;;20.50;99.90;;;;;;5096282;28;19926;-47
2023/08/17 12:47:29;;;;;;;;;;;20.40;99.90;;;;;;5096036;28;19971;-47
2023/08/17 12:49:55;;;;;;;;;;;20.30;99.90;;;;;;5096006;28;19924;-46
2023/08/17 12:52:20;;;;;;;;;;;20.30;99.90;;;;;;5096072;28;19927;-47
2023/08/17 12:54:46;;;;;;;;;;;20.30;99.90;;;;;;5095922;28;19920;-47
2023/08/17 12:57:12;;;;;;;;;;;20.30;99.90;;;;;;5095933;28;19920;-47